• Join FlightAware (Why Join?)
  • Login
  • US Flag 
03:47PM EDT


 

Airport Tracker/Info


-or-


 

Live Flight TrackerFlight Track Log ✈ AWE233 ✈ 07-Jul-2013 ✈ KPHX - KDTW

Flight Track Log - Related Links

Times and Time Zones

All times are in EDT time to prevent confusion due to time zone crossing. See the AWE233 flight status page for this flight to view local times or setup timezone preferences in your user account.

Time Position Orientation Groundspeed Altitude Reporting Facility
EDT Latitude Longitude Course Direction KTS MPH feet Rate Location/Type
02:50AM 33.4333 -111.9833 20° North 147 169 1,900  Level Phoenix TRACON
02:51AM 33.4333 -111.9167 90° East 196 226 3,400 1,200 Climbing Phoenix TRACON
02:52AM 33.7794 -111.8513 15° North  Level FlightAware Approximate
02:52AM 33.4467 -111.8669 72° East 225 259 4,500  Level Albuquerque Center
02:53AM 33.8951 -111.8012 20° North  Level FlightAware Approximate
02:53AM 33.5072 -111.8372 22° Northeast 250 288 6,400  Level Albuquerque Center
02:54AM 34.0107 -111.7506 20° North  Level FlightAware Approximate
02:54AM 33.5878 -111.8214 North 290 334 8,800  Level Albuquerque Center
02:55AM 34.1264 -111.7002 20° North  Level FlightAware Approximate
02:55AM 33.6708 -111.8053 North 303 349 11,200  Level Albuquerque Center
02:56AM 33.7586 -111.7878 North 317 365 13,700 2,460 Climbing Albuquerque Center
02:57AM 33.8683 -111.7653 10° North 333 383 16,200 2,280 Climbing Albuquerque Center
02:58AM 33.9625 -111.7461 10° North 351 404 18,300 1,980 Climbing Albuquerque Center
02:59AM 34.0722 -111.7211 11° North 374 430 20,300 1,980 Climbing Albuquerque Center
03:00AM 34.1736 -111.6792 19° North 384 442 22,300 1,560 Climbing Albuquerque Center
03:01AM 34.2664 -111.6450 17° North 392 451 23,500 1,320 Climbing Albuquerque Center
03:02AM 34.3733 -111.6022 18° North 402 463 25,000 1,380 Climbing Albuquerque Center
03:03AM 34.4836 -111.5592 18° North 410 472 26,300 1,140 Climbing Albuquerque Center
03:04AM 34.5819 -111.4797 34° Northeast 427 491 27,300 1,020 Climbing Albuquerque Center
03:05AM 34.6614 -111.3664 50° Northeast 437 503 28,400 900 Climbing Albuquerque Center
03:06AM 34.7436 -111.2506 49° Northeast 446 513 29,100 540 Climbing Albuquerque Center
03:07AM 34.8300 -111.1267 50° Northeast 470 541 29,500 540 Climbing Albuquerque Center
03:08AM 34.9203 -110.9983 49° Northeast 491 565 30,200 900 Climbing Albuquerque Center
03:09AM 35.0119 -110.8686 49° Northeast 501 577 31,400 1,140 Climbing Albuquerque Center
03:10AM 35.1042 -110.7358 50° Northeast 497 572 32,600 1,200 Climbing Albuquerque Center
03:11AM 35.1986 -110.5875 52° Northeast 494 568 33,900 960 Climbing Albuquerque Center
03:12AM 35.2783 -110.4614 52° Northeast 492 566 34,600 780 Climbing Albuquerque Center
03:13AM 35.3617 -110.3331 51° Northeast 499 574 35,500 900 Climbing Albuquerque Center
03:14AM 35.4567 -110.1853 52° Northeast 495 570 36,500 780 Climbing Albuquerque Center
03:15AM 35.5242 -110.0792 52° Northeast 495 570 37,000 240 Climbing Albuquerque Center
03:16AM 35.6033 -109.9536 52° Northeast 488 562 37,000  Level Albuquerque Center
03:17AM 35.6825 -109.8281 52° Northeast 485 558 37,000  Level Albuquerque Center
03:18AM 35.7764 -109.6797 52° Northeast 490 564 37,000  Level Albuquerque Center
03:19AM 35.8528 -109.5478 54° Northeast 493 567 37,000  Level Albuquerque Center
03:20AM 35.9072 -109.3983 66° East 497 572 37,000  Level Albuquerque Center
03:21AM 35.9631 -109.2539 64° Northeast 491 565 37,000  Level Denver Center
03:22AM 36.0192 -109.1075 65° Northeast 492 566 37,000  Level Denver Center
03:23AM 36.0750 -108.9631 64° Northeast 487 560 37,000  Level Denver Center
03:24AM 36.1381 -108.7986 65° Northeast 499 574 37,000  Level Denver Center
03:25AM 36.2008 -108.6278 65° Northeast 494 568 37,000  Level Denver Center
03:26AM 36.2556 -108.4800 65° Northeast 490 564 37,000  Level Denver Center
03:27AM 36.3106 -108.3308 65° Northeast 495 570 37,000  Level Denver Center
03:28AM 36.3747 -108.1564 65° Northeast 497 572 37,000  Level Denver Center
03:29AM 36.4303 -108.0072 65° Northeast 499 574 37,000  Level Denver Center
03:30AM 36.4836 -107.8575 66° East 497 572 37,000  Level Denver Center
03:31AM 36.5475 -107.6839 65° Northeast 494 568 37,000  Level Denver Center
03:32AM 36.6006 -107.5389 65° Northeast 485 558 37,000  Level Denver Center
03:33AM 36.6511 -107.3950 66° East 475 547 37,000  Level Denver Center
03:34AM 36.7028 -107.2494 66° East 481 554 37,000  Level Denver Center
03:35AM 36.7661 -107.0786 65° Northeast 484 557 37,000  Level Denver Center
03:36AM 36.8183 -106.9331 66° East 482 555 37,100  Climbing Denver Center
03:37AM 36.8694 -106.7881 66° East 479 551 37,000 -60 Descending Denver Center
03:38AM 36.9292 -106.6194 66° East 475 547 37,000  Level Denver Center
03:39AM 36.9794 -106.4725 67° East 477 549 37,000  Level Denver Center
03:40AM 37.0306 -106.3264 66° East 478 550 37,000  Level Denver Center
03:41AM 37.0897 -106.1536 67° East 483 556 37,000  Level Denver Center
03:42AM 37.1433 -106.0069 65° Northeast 483 556 37,000  Level Denver Center
03:43AM 37.1936 -105.8581 67° East 484 557 37,000  Level Denver Center
03:44AM 37.2525 -105.6847 67° East 486 559 37,000  Level Denver Center
03:45AM 37.3011 -105.5322 68° East 489 563 37,000  Level Denver Center
03:46AM 37.3606 -105.3575 67° East 489 563 37,000  Level Denver Center
03:47AM 37.4200 -105.1808 67° East 491 565 37,000  Level Denver Center
03:48AM 37.4714 -105.0303 67° East 489 563 37,000  Level Denver Center
03:49AM 37.5214 -104.8783 67° East 489 563 37,000  Level Denver Center
03:50AM 37.5786 -104.7017 68° East 487 560 37,000  Level Denver Center
03:51AM 37.6281 -104.5511 67° East 485 558 37,000  Level Denver Center
03:52AM 37.6783 -104.3992 67° East 487 560 37,000  Level Denver Center
03:53AM 37.7278 -104.2478 68° East 484 557 37,000  Level Denver Center
03:54AM 37.7847 -104.0689 68° East 486 559 37,000  Level Denver Center
03:55AM 37.8347 -103.9153 68° East 487 560 37,000  Level Denver Center
03:56AM 37.8831 -103.7625 68° East 485 558 37,000  Level Denver Center
03:57AM 37.9306 -103.6114 68° East 481 554 37,100  Climbing Denver Center
03:58AM 37.9856 -103.4353 68° East 478 550 37,000 -60 Descending Denver Center
03:59AM 38.0322 -103.2853 68° East 477 549 37,000  Level Denver Center
04:00AM 38.0844 -103.1219 68° East 478 550 37,000  Level Denver Center
04:01AM 38.1308 -102.9717 69° East 479 551 37,000  Level Denver Center
04:02AM 38.1758 -102.8211 69° East 477 549 37,000  Level Denver Center
04:03AM 38.2294 -102.6439 69° East 480 552 37,000  Level Denver Center
04:04AM 38.2586 -102.4889 76° East 474 545 37,000  Level Denver Center
04:05AM 38.2872 -102.3325 77° East 475 547 37,000  Level Denver Center
04:06AM 38.3236 -102.1522 76° East 472 543 37,000  Level Denver Center
04:07AM 38.3525 -101.9975 77° East 468 539 37,000  Level Denver Center
04:08AM 38.3883 -101.8442 73° East 469 540 37,000  Level Denver Center
04:09AM 38.4208 -101.7175 72° East 470 541 37,000  Level Denver Center
04:10AM 38.4714 -101.5128 72° East 474 545 37,000  Level Denver Center
04:11AM 38.5089 -101.3589 73° East 473 544 37,000  Level Denver Center
04:12AM 38.5478 -101.2064 72° East 471 542 37,000  Level Denver Center
04:13AM 38.5931 -101.0281 72° East 471 542 37,000  Level Denver Center
04:14AM 38.6306 -100.8750 73° East 470 541 37,000  Level Denver Center
04:15AM 38.6700 -100.7247 71° East 466 536 37,000  Level Denver Center
04:16AM 38.7083 -100.5731 72° East 465 535 37,000  Level Denver Center
04:18AM 38.7564 -100.4000 70° East 463 533 37,000  Level Denver Center
04:19AM 38.8064 -100.2275 70° East 463 533 37,000  Level Denver Center
04:19AM 38.8422 -100.1042 70° East 460 529 37,000  Level Kansas City Center
04:20AM 38.8847 -99.9564 70° East 460 529 37,000  Level Kansas City Center
04:21AM 38.9267 -99.8067 70° East 464 534 37,000  Level Kansas City Center
04:22AM 38.9764 -99.6303 70° East 468 539 37,000  Level Kansas City Center
04:23AM 39.0128 -99.5006 70° East 468 539 37,000  Level Kansas City Center
04:24AM 39.0575 -99.3425 70° East 470 541 37,000  Level Kansas City Center
04:25AM 39.1017 -99.1831 70° East 472 543 37,000  Level Kansas City Center
04:26AM 39.1464 -99.0247 70° East 471 542 37,000  Level Kansas City Center
04:27AM 39.1886 -98.8672 71° East 465 535 37,000  Level Kansas City Center
04:28AM 39.2356 -98.6956 71° East 467 537 37,000  Level Kansas City Center
04:29AM 39.2792 -98.5311 71° East 473 544 37,000  Level Kansas City Center
04:30AM 39.3222 -98.3708 71° East 474 545 37,000  Level Kansas City Center
04:31AM 39.3664 -98.2075 71° East 475 547 37,000  Level Kansas City Center
04:32AM 39.4075 -98.0542 71° East 473 544 37,000  Level Kansas City Center
04:33AM 39.4628 -97.8803 68° East 468 539 37,000 -60 Level Kansas City Center
04:34AM 39.5056 -97.7378 69° East 470 541 36,900  Descending Kansas City Center
04:35AM 39.5528 -97.5839 68° East 463 533 37,000  Climbing Kansas City Center
04:36AM 39.6014 -97.4267 68° East 469 540 37,000  Level Kansas City Center
04:37AM 39.6503 -97.2667 68° East 476 548 37,000  Level Kansas City Center
04:38AM 39.7083 -97.0828 68° East 482 555 37,000  Level Kansas City Center
04:39AM 39.7567 -96.9225 69° East 479 551 37,000  Level Kansas City Center
04:40AM 39.8069 -96.7522 69° East 477 549 37,000  Level Kansas City Center
04:41AM 39.8539 -96.5931 69° East 473 544 37,000  Level Kansas City Center
04:42AM 39.8950 -96.4492 70° East 473 544 37,000  Level Minneapolis Center
04:43AM 39.9414 -96.2922 69° East 470 541 37,000  Level Minneapolis Center
04:44AM 39.9906 -96.1289 69° East 464 534 37,000  Level Kansas City Center
04:45AM 40.0358 -95.9756 69° East 471 542 37,000  Level Kansas City Center
04:46AM 40.0872 -95.7978 69° East 468 539 37,100  Climbing Kansas City Center
04:47AM 40.1303 -95.6475 69° East 462 532 37,000 -60 Descending Kansas City Center
04:48AM 40.1728 -95.4986 69° East 456 525 37,000  Level Kansas City Center
04:49AM 40.2133 -95.3519 70° East 453 521 37,000  Level Minneapolis Center
04:50AM 40.2575 -95.1975 69° East 454 522 37,000  Level Minneapolis Center
04:51AM 40.3011 -95.0422 70° East 455 524 37,000  Level Minneapolis Center
04:52AM 40.3453 -94.8858 70° East 458 527 37,000  Level Minneapolis Center
04:53AM 40.3889 -94.7264 70° East 463 533 37,100  Climbing Minneapolis Center
04:54AM 40.4339 -94.5681 69° East 464 534 37,000 -60 Descending Minneapolis Center
04:55AM 40.4792 -94.3992 71° East 464 534 37,000  Level Minneapolis Center
04:57AM 40.5225 -94.2442 70° East 459 528 37,000  Level Minneapolis Center
04:58AM 40.5522 -94.0869 76° East 454 522 37,000  Level Minneapolis Center
04:59AM 40.5322 -93.9189 99° East 466 536 37,000  Level Minneapolis Center
05:00AM 40.5103 -93.7536 100° East 465 535 37,000  Level Minneapolis Center
05:01AM 40.4781 -93.5544 102° East 468 539 37,000  Level Minneapolis Center
05:02AM 40.4550 -93.3864 100° East 470 541 37,000  Level Minneapolis Center
05:03AM 40.4286 -93.2206 102° East 469 540 37,000  Level Minneapolis Center
05:04AM 40.4033 -93.0553 101° East 467 537 37,000  Level Minneapolis Center
05:05AM 40.3794 -92.8911 101° East 465 535 37,000  Level Minneapolis Center
05:06AM 40.3556 -92.7275 101° East 462 532 37,000  Level Minneapolis Center
05:07AM 40.3281 -92.5622 102° East 461 531 37,000  Level Minneapolis Center
05:08AM 40.3000 -92.3769 101° East 465 535 37,000  Level Minneapolis Center
05:09AM 40.2622 -92.1433 102° East 469 540 37,100  Climbing Chicago Center
05:10AM 40.2361 -91.9778 102° East 469 540 37,000 -60 Descending Chicago Center
05:11AM 40.2092 -91.8122 102° East 469 540 37,000  Level Kansas City Center
05:11AM 40.2092 -91.8122 102° East 470 541 37,000 60 Level Chicago Center
05:12AM 40.1822 -91.6506 102° East 465 535 37,100  Climbing Kansas City Center
05:13AM 40.1553 -91.4925 103° East 455 524 37,000 -120 Descending Kansas City Center
05:14AM 40.1292 -91.3364 102° East 447 514 36,900  Descending Kansas City Center
05:15AM 40.1033 -91.1789 102° East 447 514 37,000  Climbing Kansas City Center
05:16AM 40.0803 -91.0197 101° East 450 518 37,000  Level Kansas City Center
05:17AM 40.1275 -90.8678 68° East 450 518 37,100  Climbing Chicago Center
05:18AM 40.1744 -90.7228 67° East 441 507 37,000 -60 Descending Chicago Center
05:19AM 40.2256 -90.5675 67° East 445 512 37,000  Level Chicago Center
05:20AM 40.2733 -90.4192 67° East 444 511 37,000  Level Chicago Center
05:21AM 40.3211 -90.2717 67° East 442 509 37,000  Level Chicago Center
05:22AM 40.3678 -90.1247 67° East 439 505 37,000  Level Chicago Center
05:23AM 40.4144 -89.9769 67° East 442 509 37,000  Level Chicago Center
05:24AM 40.4606 -89.8297 68° East 443 510 37,000  Level Chicago Center
05:25AM 40.5169 -89.6547 67° East 441 507 37,000  Level Chicago Center
05:26AM 40.5644 -89.5067 67° East 443 510 37,000  Level Chicago Center
05:27AM 40.6108 -89.3578 68° East 445 512 37,000  Level Chicago Center
05:28AM 40.6578 -89.2094 67° East 442 509 37,000  Level Chicago Center
05:29AM 40.7061 -89.0592 67° East 446 513 37,000  Level Chicago Center
05:30AM 40.7519 -88.9092 68° East 444 511 37,000  Level Chicago Center
05:31AM 40.7958 -88.7619 68° East 440 506 37,000  Level Chicago Center
05:32AM 40.8419 -88.6106 68° East 445 512 37,000  Level Chicago Center
05:33AM 40.8886 -88.4589 68° East 450 518 37,000  Level Chicago Center
05:34AM 40.9342 -88.3058 68° East 451 519 37,000  Level Chicago Center
05:35AM 40.9797 -88.1519 69° East 454 522 37,000  Level Chicago Center
05:36AM 41.0247 -87.9986 69° East 452 520 37,000  Level Chicago Center
05:37AM 41.0700 -87.8461 68° East 452 520 37,000  Level Chicago Center
05:38AM 41.1242 -87.6636 68° East 451 519 37,000  Level Chicago Center
05:39AM 41.1692 -87.5139 68° East 445 512 37,000  Level Chicago Center
05:40AM 41.2117 -87.3642 69° East 440 506 37,000  Level Chicago Center
05:41AM 41.2558 -87.2131 69° East 441 507 37,000  Level Chicago Center
05:42AM 41.2994 -87.0608 69° East 444 511 37,000  Level Chicago Center
05:43AM 41.3431 -86.9072 69° East 447 514 37,000  Level Chicago Center
05:44AM 41.3883 -86.7539 68° East 447 514 37,100  Climbing Chicago Center
05:45AM 41.4356 -86.5914 69° East 443 510 37,000 -60 Descending Chicago Center
05:46AM 41.4800 -86.4372 69° East 445 512 37,000  Level Chicago Center
05:47AM 41.5231 -86.2833 69° East 445 512 37,000  Level Chicago Center
05:48AM 41.5664 -86.1294 69° East 444 511 37,000  Level Chicago Center
05:49AM 41.6103 -85.9761 69° East 442 509 37,000 -1,320 Level Chicago Center
05:50AM 41.6542 -85.8208 69° East 445 512 34,400 -3,300 Descending Chicago Center
05:51AM 41.7014 -85.6536 69° East 471 542 30,500 -3,720 Descending Chicago Center
05:52AM 41.7494 -85.4808 70° East 484 557 27,000 -3,480 Descending Chicago Center
05:53AM 41.7961 -85.3100 70° East 478 550 23,500 -2,940 Descending Chicago Center
05:54AM 41.8319 -85.1761 70° East 475 547 21,200 -1,260 Descending Chicago Center
05:55AM 41.8808 -84.9847 71° East 459 528 21,000 -1,440 Descending Chicago Center
05:56AM 41.9214 -84.8269 71° East 450 518 18,400 -2,760 Descending Chicago Center
05:57AM 41.9617 -84.6697 71° East 447 514 15,500 -2,040 Descending Chicago Center
05:58AM 41.9931 -84.5461 71° East 426 490 14,300 -1,380 Descending Chicago Center
05:59AM 42.0267 -84.4122 71° East 390 449 12,800 -1,440 Descending Chicago Center
06:00AM 42.0533 -84.3167 69° East 375 432 11,800 -1,080 Descending Cleveland Center
06:01AM 42.0783 -84.1950 74° East 343 395 11,000 -420 Descending Cleveland Center
06:02AM 42.1067 -84.0875 70° East 306 352 11,000  Level Cleveland Center
06:03AM 42.1328 -83.9825 71° East 299 344 11,000 -60 Level Cleveland Center
06:04AM 42.1586 -83.8747 72° East 299 344 10,900 -720 Descending Cleveland Center
06:05AM 42.1750 -83.8194 68° East 302 348 10,000 -1,620 Descending Cleveland Center
06:05AM 42.1847 -83.7694 75° East 299 344 9,300 -1,500 Descending Cleveland Center
06:06AM 42.2125 -83.6614 71° East 299 344 7,800 -1,680 Descending Cleveland Center
06:07AM 42.2267 -83.6006 73° East 293 337 6,700 -1,380 Descending Cleveland Center
06:08AM 42.2933 -83.5250 40° Northeast 262 302 5,500 -1,200 Descending Cleveland Center
06:09AM 42.3381 -83.4878 32° Northeast 221 254 4,500 -900 Descending Cleveland Center
06:10AM 42.3686 -83.4272 56° Northeast 214 246 4,000 -780 Descending Cleveland Center
06:11AM 42.3689 -83.3319 90° East 194 223 2,800 -780 Descending Cleveland Center
06:12AM 42.3258 -83.3019 153° Southeast 182 209 2,300 -540 Descending Cleveland Center
06:13AM 42.2881 -83.3197 199° South 176 203 1,900 -660 Descending Cleveland Center
06:14AM 42.2497 -83.3492 210° Southwest 122 140 1,100 -720 Descending Cleveland Center